Time;durP1;ratioP1;P1;durP2;ratioP2;P2;SDS_P1;SDS_P2;PMS_P1;PMS_P2;Temp;Humidity;BMP_temperature;BMP_pressure;BME280_temperature;BME280_humidity;BME280_pressure;Samples;Min_cycle;Max_cycle;Signal;HPM_P1;HPM_P2
2022/05/22 00:00:23;;;;;;;5.07;2.55;;;7.70;58.30;;;;;;4994745;28;20121;-79
2022/05/22 00:02:49;;;;;;;3.67;2.90;;;7.70;58.20;;;;;;5012019;28;20022;-78
2022/05/22 00:05:17;;;;;;;4.47;2.65;;;7.70;58.10;;;;;;4997028;28;20523;-78
2022/05/22 00:07:43;;;;;;;6.13;2.45;;;7.60;58.00;;;;;;5015726;28;20077;-77
2022/05/22 00:10:10;;;;;;;9.00;2.85;;;7.60;58.00;;;;;;4998238;28;20398;-78
2022/05/22 00:12:36;;;;;;;7.78;3.38;;;7.60;58.00;;;;;;5016262;28;20099;-78
2022/05/22 00:15:03;;;;;;;7.00;2.75;;;7.60;58.20;;;;;;5018208;28;20038;-78
2022/05/22 00:17:29;;;;;;;5.17;2.63;;;7.60;58.20;;;;;;4997175;28;20026;-79
2022/05/22 00:19:55;;;;;;;6.00;2.80;;;7.50;57.90;;;;;;4995415;28;20023;-78
2022/05/22 00:22:21;;;;;;;5.03;2.55;;;7.50;57.90;;;;;;5011897;28;20499;-77
2022/05/22 00:24:47;;;;;;;4.80;2.83;;;7.50;57.90;;;;;;5017472;28;20064;-79
2022/05/22 00:27:13;;;;;;;5.22;2.25;;;7.50;57.70;;;;;;5015731;28;20106;-77
2022/05/22 00:29:39;;;;;;;5.50;2.30;;;7.50;57.90;;;;;;5015268;28;20066;-79
2022/05/22 00:32:06;;;;;;;5.60;2.40;;;7.40;57.80;;;;;;5015056;28;20057;-78
2022/05/22 00:34:32;;;;;;;4.90;2.63;;;7.40;58.00;;;;;;5015466;28;20037;-79
2022/05/22 00:36:58;;;;;;;5.82;2.53;;;7.40;57.90;;;;;;5016950;28;20379;-79
2022/05/22 00:39:24;;;;;;;4.40;2.58;;;7.30;58.10;;;;;;5018110;28;20032;-77
2022/05/22 00:41:52;;;;;;;3.28;2.58;;;7.20;58.30;;;;;;5003818;28;20027;-78
2022/05/22 00:44:19;;;;;;;3.17;2.30;;;7.20;58.30;;;;;;4995731;28;20325;-78
2022/05/22 00:46:45;;;;;;;3.85;2.28;;;7.10;58.50;;;;;;4995552;28;20037;-78
2022/05/22 00:49:21;;;;;;;7.82;2.72;;;7.10;58.70;;;;;;4996981;28;20029;-78
2022/05/22 00:51:58;;;;;;;3.55;2.70;;;7.10;58.70;;;;;;4998082;28;20022;-77
2022/05/22 00:54:33;;;;;;;6.22;3.60;;;7.10;58.90;;;;;;4995878;28;20443;-78
2022/05/22 00:57:28;;;;;;;5.05;2.80;;;7.00;59.20;;;;;;5000948;28;20026;-78
2022/05/22 00:59:58;;;;;;;6.38;3.00;;;7.00;59.10;;;;;;4995804;28;20034;-77
2022/05/22 01:02:26;;;;;;;4.15;3.28;;;7.00;59.30;;;;;;4995697;28;20046;-78
2022/05/22 01:04:52;;;;;;;4.55;2.97;;;6.90;59.20;;;;;;4978003;28;20034;-79
2022/05/22 01:07:19;;;;;;;6.15;3.35;;;6.90;59.20;;;;;;4995207;28;20025;-78
2022/05/22 01:09:46;;;;;;;8.52;3.00;;;6.90;59.20;;;;;;4977394;28;20125;-79
2022/05/22 01:12:18;;;;;;;6.35;3.50;;;6.80;59.30;;;;;;4994397;28;20024;-78
2022/05/22 01:14:47;;;;;;;4.85;3.22;;;6.80;59.50;;;;;;4995684;28;20053;-79
2022/05/22 01:17:13;;;;;;;6.63;3.03;;;6.80;59.40;;;;;;4994067;28;20070;-79
2022/05/22 01:19:39;;;;;;;6.55;3.42;;;6.80;59.60;;;;;;4994625;28;20133;-77
2022/05/22 01:22:12;;;;;;;7.93;3.25;;;6.70;59.90;;;;;;4994859;28;20438;-78
2022/05/22 01:24:38;;;;;;;6.72;3.33;;;6.70;59.90;;;;;;4996477;28;20101;-78
2022/05/22 01:27:11;;;;;;;5.65;2.20;;;6.70;59.80;;;;;;4999331;28;20057;-78
2022/05/22 01:29:36;;;;;;;3.70;2.58;;;6.70;59.80;;;;;;4994503;28;20083;-79
2022/05/22 01:32:04;;;;;;;4.72;3.35;;;6.70;60.00;;;;;;4994392;28;20054;-80
2022/05/22 01:34:30;;;;;;;;;;;6.60;60.00;;;;;;4994882;28;20042;-79
2022/05/22 01:36:55;;;;;;;5.43;2.78;;;6.60;59.70;;;;;;4994408;28;19909;-78
2022/05/22 01:39:22;;;;;;;4.75;3.03;;;6.50;60.00;;;;;;4996093;28;20021;-79
2022/05/22 01:41:47;;;;;;;7.07;2.80;;;6.50;60.20;;;;;;5013761;28;20029;-78
2022/05/22 01:44:13;;;;;;;14.88;3.42;;;6.50;60.50;;;;;;5013634;28;20104;-78
2022/05/22 01:46:39;;;;;;;4.20;2.53;;;6.60;60.50;;;;;;5013723;28;20033;-78
2022/05/22 01:49:05;;;;;;;4.30;1.75;;;6.60;60.40;;;;;;5013609;28;20372;-78
2022/05/22 01:51:37;;;;;;;5.85;2.80;;;6.60;60.30;;;;;;4996290;28;20033;-80
2022/05/22 01:54:04;;;;;;;7.05;2.67;;;6.60;60.30;;;;;;5013557;28;20498;-78
2022/05/22 01:56:31;;;;;;;3.13;2.83;;;6.60;60.40;;;;;;5013670;28;20032;-79
2022/05/22 01:58:57;;;;;;;7.45;2.72;;;6.70;60.30;;;;;;5013553;28;20395;-78
2022/05/22 02:01:23;;;;;;;3.80;2.55;;;6.60;60.30;;;;;;5013338;28;20034;-77
2022/05/22 02:03:48;;;;;;;6.80;3.38;;;6.60;60.30;;;;;;5013513;28;20033;-79
2022/05/22 02:06:14;;;;;;;5.72;3.08;;;6.70;60.40;;;;;;5013342;28;20030;-79
2022/05/22 02:08:42;;;;;;;5.40;3.03;;;6.70;60.10;;;;;;5013407;28;20438;-78
2022/05/22 02:11:08;;;;;;;7.95;3.38;;;6.70;60.20;;;;;;5013396;28;20022;-79
2022/05/22 02:13:40;;;;;;;4.18;3.08;;;6.70;60.20;;;;;;5003747;28;20474;-79
2022/05/22 02:16:05;;;;;;;5.22;2.40;;;6.70;60.30;;;;;;4993526;28;20053;-78
2022/05/22 02:18:32;;;;;;;7.18;2.83;;;6.70;60.00;;;;;;4993750;28;20540;-79
2022/05/22 02:20:57;;;;;;;3.03;2.30;;;6.70;59.90;;;;;;4992314;28;20038;-80
2022/05/22 02:23:23;;;;;;;7.68;3.05;;;6.80;59.90;;;;;;4993568;28;20101;-79
2022/05/22 02:25:52;;;;;;;4.35;2.35;;;6.70;59.80;;;;;;4993634;28;20027;-80
2022/05/22 02:28:19;;;;;;;5.95;2.78;;;6.70;59.90;;;;;;4993110;28;20027;-79
2022/05/22 02:30:52;;;;;;;9.45;2.70;;;6.70;60.00;;;;;;4993268;28;20538;-78
2022/05/22 02:33:18;;;;;;;3.88;2.17;;;6.70;60.00;;;;;;4993397;28;20134;-77
2022/05/22 02:35:44;;;;;;;5.18;3.20;;;6.80;60.00;;;;;;4994564;28;20039;-79
2022/05/22 02:38:10;;;;;;;3.47;2.20;;;6.90;59.90;;;;;;5001625;28;20049;-78
2022/05/22 02:40:38;;;;;;;6.20;3.40;;;6.90;59.70;;;;;;5007023;28;20121;-78
2022/05/22 02:43:05;;;;;;;5.93;2.83;;;7.00;59.80;;;;;;5011886;28;20100;-78
2022/05/22 02:45:34;;;;;;;5.70;4.17;;;7.10;59.60;;;;;;5013297;28;20364;-79
2022/05/22 02:47:59;;;;;;;6.07;2.50;;;7.10;59.40;;;;;;5016504;28;20434;-78
2022/05/22 02:50:27;;;;;;;4.32;2.47;;;7.10;59.40;;;;;;5016003;28;20105;-78
2022/05/22 02:52:53;;;;;;;;;;;7.20;59.60;;;;;;4997916;28;20104;-77
2022/05/22 02:55:19;;;;;;;4.25;2.22;;;7.20;59.20;;;;;;5012664;28;19960;-78
2022/05/22 02:57:46;;;;;;;6.50;3.28;;;7.30;59.40;;;;;;5012803;28;20086;-77
2022/05/22 03:00:20;;;;;;;5.47;2.88;;;7.30;59.30;;;;;;5010174;28;20032;-78
2022/05/22 03:02:46;;;;;;;6.55;3.00;;;7.40;59.70;;;;;;5013495;28;20033;-79
2022/05/22 03:05:12;;;;;;;6.18;3.05;;;7.30;59.20;;;;;;5013496;28;20499;-80
2022/05/22 03:07:38;;;;;;;6.43;2.67;;;7.40;59.30;;;;;;5012870;28;20022;-78
2022/05/22 03:10:11;;;;;;;8.45;2.60;;;7.40;59.10;;;;;;4994671;28;20026;-79
2022/05/22 03:12:37;;;;;;;6.30;2.75;;;7.40;59.30;;;;;;4999679;28;20101;-78
2022/05/22 03:15:06;;;;;;;5.28;2.85;;;7.50;59.10;;;;;;4992588;28;20122;-78
2022/05/22 03:17:33;;;;;;;5.65;2.50;;;7.60;58.80;;;;;;4992319;28;20130;-78
2022/05/22 03:19:59;;;;;;;5.40;2.50;;;7.60;58.90;;;;;;4975549;28;20026;-79
2022/05/22 03:22:25;;;;;;;8.73;3.50;;;7.40;59.00;;;;;;4992550;28;20112;-79
2022/05/22 03:24:51;;;;;;;6.97;3.70;;;7.40;59.20;;;;;;4992642;28;20027;-79
2022/05/22 03:27:19;;;;;;;9.25;2.95;;;7.50;59.10;;;;;;4992735;28;20069;-79
2022/05/22 03:29:46;;;;;;;;;;;7.60;58.70;;;;;;4992856;28;20077;-79
2022/05/22 03:32:12;;;;;;;4.13;3.53;;;7.60;58.70;;;;;;4992741;28;20493;-78
2022/05/22 03:34:38;;;;;;;4.88;2.38;;;7.70;58.80;;;;;;4994722;28;20042;-79
2022/05/22 03:37:05;;;;;;;5.18;2.70;;;7.80;58.30;;;;;;4994656;28;20046;-79
2022/05/22 03:39:32;;;;;;;3.42;2.20;;;7.80;58.40;;;;;;4999624;28;20543;-80
2022/05/22 03:41:58;;;;;;;5.72;2.95;;;7.70;58.70;;;;;;5016432;28;20030;-79
2022/05/22 03:44:24;;;;;;;4.22;2.85;;;7.80;58.50;;;;;;5016331;28;20021;-80
2022/05/22 03:46:50;;;;;;;5.10;2.65;;;7.80;58.50;;;;;;5016568;28;20018;-79
2022/05/22 03:49:16;;;;;;;7.03;3.40;;;7.90;58.80;;;;;;5000928;28;20045;-78
2022/05/22 03:51:42;;;;;;;4.30;2.70;;;8.00;58.30;;;;;;5024506;28;20101;-80
2022/05/22 03:54:09;;;;;;;4.10;3.08;;;8.00;59.10;;;;;;5015702;28;20089;-79
2022/05/22 03:56:35;;;;;;;5.13;2.85;;;8.00;58.40;;;;;;5015942;28;20030;-78
2022/05/22 03:59:02;;;;;;;4.07;2.72;;;8.00;58.00;;;;;;5015823;28;20100;-78
2022/05/22 04:01:28;;;;;;;4.55;3.10;;;8.00;57.90;;;;;;5015757;28;20026;-78
2022/05/22 04:03:54;;;;;;;5.05;3.30;;;8.10;57.70;;;;;;5015968;28;20026;-78
2022/05/22 04:06:20;;;;;;;4.90;2.97;;;8.10;57.90;;;;;;5020041;28;20107;-78
2022/05/22 04:08:45;;;;;;;6.25;2.90;;;8.00;58.20;;;;;;5019287;28;20152;-78
2022/05/22 04:11:14;;;;;;;5.90;3.20;;;8.00;58.10;;;;;;5006624;28;20041;-80
2022/05/22 04:13:40;;;;;;;5.05;2.97;;;8.00;58.30;;;;;;4996020;28;20077;-79
2022/05/22 04:16:07;;;;;;;4.60;2.80;;;8.10;58.10;;;;;;4978822;28;20037;-80
2022/05/22 04:18:33;;;;;;;5.28;3.45;;;8.10;58.10;;;;;;4995967;28;20097;-81
2022/05/22 04:20:59;;;;;;;3.80;2.47;;;8.20;58.20;;;;;;4996254;28;20154;-81
2022/05/22 04:26:10;;;;;;;4.88;2.85;;;8.40;57.50;;;;;;5014411;28;20037;-79
2022/05/22 04:28:36;;;;;;;6.68;2.83;;;8.50;57.20;;;;;;4997563;28;20513;-78
2022/05/22 04:31:03;;;;;;;6.45;2.92;;;8.50;57.00;;;;;;5015076;28;20105;-79
2022/05/22 04:33:30;;;;;;;4.32;3.55;;;8.50;56.70;;;;;;4997245;28;20042;-79
2022/05/22 04:35:56;;;;;;;3.97;2.57;;;8.60;56.90;;;;;;5015020;28;20092;-79
2022/05/22 04:38:22;;;;;;;8.02;3.30;;;8.60;56.70;;;;;;5015230;28;20052;-77
2022/05/22 04:40:56;;;;;;;3.88;2.63;;;8.60;56.80;;;;;;5014890;28;20022;-78
2022/05/22 04:43:23;;;;;;;8.10;3.53;;;8.60;56.70;;;;;;5015159;28;20033;-79
2022/05/22 04:45:50;;;;;;;8.67;3.47;;;8.60;56.80;;;;;;4999369;28;20079;-79
2022/05/22 04:48:19;;;;;;;5.53;2.50;;;8.70;56.20;;;;;;4996091;28;20027;-80
2022/05/22 04:50:46;;;;;;;4.38;2.17;;;8.80;55.90;;;;;;4995554;28;20030;-79
2022/05/22 04:53:13;;;;;;;5.18;2.45;;;8.70;55.60;;;;;;4995599;28;20073;-79
2022/05/22 04:55:39;;;;;;;2.92;2.15;;;8.70;56.30;;;;;;4996102;28;20077;-80
2022/05/22 04:58:05;;;;;;;7.25;2.42;;;8.80;56.00;;;;;;4997710;28;20026;-79
2022/05/22 05:00:31;;;;;;;3.50;2.35;;;9.30;55.80;;;;;;4997573;28;20401;-81
2022/05/22 05:02:57;;;;;;;7.45;3.00;;;10.00;53.60;;;;;;5004079;28;20433;-79
2022/05/22 05:05:23;;;;;;;2.53;2.00;;;10.90;52.40;;;;;;4995920;28;20027;-80
2022/05/22 05:07:48;;;;;;;2.75;2.22;;;12.10;49.70;;;;;;4994953;28;20384;-81
2022/05/22 05:10:14;;;;;;;5.15;2.38;;;12.60;47.60;;;;;;4994789;28;20157;-78
2022/05/22 05:12:41;;;;;;;5.43;2.90;;;12.90;46.50;;;;;;4995077;28;20027;-78
2022/05/22 05:15:09;;;;;;;3.03;2.25;;;13.40;45.20;;;;;;4995598;28;20081;-80
2022/05/22 05:17:39;;;;;;;4.30;2.72;;;13.40;44.00;;;;;;5013089;28;20077;-79
2022/05/22 05:20:05;;;;;;;3.95;2.17;;;13.40;44.40;;;;;;5002487;28;20023;-79
2022/05/22 05:22:31;;;;;;;8.00;2.25;;;14.00;43.60;;;;;;4995761;28;20033;-80
2022/05/22 05:24:57;;;;;;;6.63;2.88;;;14.50;42.80;;;;;;4997777;28;20030;-79
2022/05/22 05:27:23;;;;;;;5.00;2.42;;;14.90;42.20;;;;;;4994600;28;20395;-80
2022/05/22 05:29:49;;;;;;;4.07;1.80;;;15.30;40.80;;;;;;4983193;28;20113;-80
2022/05/22 05:32:18;;;;;;;2.83;1.90;;;15.50;40.20;;;;;;4994269;28;20456;-80
2022/05/22 05:34:44;;;;;;;4.38;2.35;;;15.30;40.10;;;;;;4994788;28;20432;-81
2022/05/22 05:37:10;;;;;;;5.55;2.35;;;15.70;40.70;;;;;;4994761;28;20073;-79
2022/05/22 05:39:36;;;;;;;2.38;2.17;;;16.30;38.80;;;;;;5000294;28;20526;-79
2022/05/22 05:42:02;;;;;;;4.97;2.55;;;17.00;38.20;;;;;;5014398;28;20432;-80
2022/05/22 05:44:28;;;;;;;3.83;2.03;;;17.80;36.70;;;;;;4972801;28;20114;-81
2022/05/22 05:46:54;;;;;;;2.38;1.95;;;18.50;36.10;;;;;;4973167;28;20608;-80
2022/05/22 05:49:20;;;;;;;5.03;2.20;;;19.10;34.60;;;;;;4972765;28;20046;-80
2022/05/22 05:51:46;;;;;;;5.07;2.13;;;19.30;34.40;;;;;;4971750;28;20046;-82
2022/05/22 05:54:11;;;;;;;3.83;1.75;;;19.40;33.60;;;;;;4987888;28;20046;-80
2022/05/22 05:56:41;;;;;;;5.07;2.58;;;18.70;33.70;;;;;;4991949;28;20476;-80
2022/05/22 05:59:07;;;;;;;4.68;2.00;;;18.10;34.60;;;;;;4991545;28;20141;-78
2022/05/22 06:01:34;;;;;;;7.07;2.20;;;18.20;34.90;;;;;;4991067;28;20030;-80
2022/05/22 06:04:01;;;;;;;7.80;2.67;;;18.70;34.60;;;;;;4991625;28;20038;-81
2022/05/22 06:06:27;;;;;;;3.95;2.17;;;19.10;34.40;;;;;;4991720;28;20396;-81
2022/05/22 06:08:53;;;;;;;6.60;2.20;;;20.00;33.60;;;;;;4979825;28;20029;-80
2022/05/22 06:11:19;;;;;;;3.95;2.30;;;21.60;31.60;;;;;;4955987;28;20034;-80
2022/05/22 06:13:45;;;;;;;6.60;3.55;;;21.80;31.10;;;;;;4975107;28;20033;-81
2022/05/22 06:16:11;;;;;;;3.90;2.30;;;22.70;30.20;;;;;;5000263;28;20043;-80
2022/05/22 06:18:37;;;;;;;5.05;2.10;;;23.60;29.70;;;;;;4993677;28;20022;-81
2022/05/22 06:21:11;;;;;;;3.67;2.03;;;24.80;28.30;;;;;;5013198;28;20022;-81
2022/05/22 06:23:38;;;;;;;4.43;2.13;;;24.50;27.90;;;;;;5013107;28;20777;-81
2022/05/22 06:26:08;;;;;;;3.65;1.95;;;24.60;28.00;;;;;;5004590;28;20065;-81
2022/05/22 06:28:35;;;;;;;5.43;1.90;;;24.00;27.70;;;;;;4993466;28;20030;-80
2022/05/22 06:31:03;;;;;;;6.80;1.95;;;23.50;28.10;;;;;;4993342;28;20029;-80
2022/05/22 06:33:30;;;;;;;4.45;2.03;;;23.20;27.80;;;;;;4975992;28;20061;-82
2022/05/22 06:35:57;;;;;;;3.47;1.88;;;23.80;28.00;;;;;;4993551;28;20040;-80
2022/05/22 06:41:11;;;;;;;5.47;2.22;;;23.80;27.30;;;;;;5000792;28;20045;-81
2022/05/22 06:43:38;;;;;;;2.30;1.80;;;24.10;27.30;;;;;;4999335;28;20073;-79
2022/05/22 06:46:04;;;;;;;3.28;1.85;;;23.20;27.20;;;;;;4989194;28;20022;-81
2022/05/22 06:48:30;;;;;;;3.20;2.20;;;22.90;28.30;;;;;;5005226;28;20022;-80
2022/05/22 06:50:56;;;;;;;3.70;2.05;;;23.80;27.40;;;;;;5010600;28;20034;-81
2022/05/22 06:53:22;;;;;;;6.55;2.10;;;23.80;27.10;;;;;;5005096;28;20077;-81
2022/05/22 06:55:48;;;;;;;4.07;2.28;;;23.80;27.20;;;;;;5014221;28;20034;-81
2022/05/22 06:58:14;;;;;;;5.72;2.30;;;24.40;27.30;;;;;;4995171;28;20165;-80
2022/05/22 07:00:41;;;;;;;3.70;2.25;;;24.50;26.50;;;;;;5012554;28;20022;-81
2022/05/22 07:03:07;;;;;;;4.20;2.60;;;24.10;27.10;;;;;;5013209;28;20777;-79
2022/05/22 07:05:33;;;;;;;6.95;2.20;;;24.60;26.80;;;;;;5004017;28;20511;-81
2022/05/22 07:07:58;;;;;;;6.05;2.00;;;25.60;26.20;;;;;;4996318;28;20023;-81
2022/05/22 07:11:38;;;;;;;4.47;1.95;;;26.30;25.70;;;;;;4993804;28;20045;-82
2022/05/22 07:13:11;;;;;;;3.28;2.03;;;27.40;25.50;;;;;;5006759;28;20022;-81
2022/05/22 07:15:38;;;;;;;5.20;1.95;;;28.00;24.70;;;;;;5000265;28;20117;-80
2022/05/22 07:18:04;;;;;;;4.15;2.10;;;27.00;24.60;;;;;;4993761;28;20042;-80
2022/05/22 07:20:30;;;;;;;7.70;1.73;;;25.40;25.20;;;;;;4995341;28;20468;-79
2022/05/22 07:22:56;;;;;;;3.67;2.50;;;24.70;25.60;;;;;;5009758;28;20041;-79
2022/05/22 07:25:22;;;;;;;4.28;2.45;;;24.10;26.10;;;;;;4997840;28;20388;-78
2022/05/22 07:27:47;;;;;;;2.83;2.17;;;24.70;25.80;;;;;;5008415;28;20026;-80
2022/05/22 07:30:13;;;;;;;5.07;2.10;;;25.40;26.00;;;;;;5012319;28;20073;-81
2022/05/22 07:32:39;;;;;;;2.22;1.58;;;26.50;25.20;;;;;;5012139;28;20042;-80
2022/05/22 07:35:06;;;;;;;5.07;2.08;;;;;;;;;;5007823;28;20113;-80
2022/05/22 07:37:32;;;;;;;5.32;2.25;;;28.40;24.30;;;;;;5012071;28;20026;-81
2022/05/22 07:39:58;;;;;;;8.80;2.45;;;28.80;24.20;;;;;;5005449;28;20156;-80
2022/05/22 07:42:24;;;;;;;7.05;2.83;;;28.80;23.70;;;;;;4991738;28;20113;-79
2022/05/22 07:44:49;;;;;;;4.72;2.63;;;28.70;23.90;;;;;;4974497;28;20190;-81
2022/05/22 07:47:15;;;;;;;3.65;1.85;;;28.50;23.70;;;;;;4991940;28;20018;-81
2022/05/22 07:52:26;;;;;;;3.40;1.92;;;28.00;23.80;;;;;;4993022;28;20520;-81
2022/05/22 07:54:52;;;;;;;4.35;1.95;;;28.90;23.70;;;;;;4992737;28;20148;-80
2022/05/22 07:57:18;;;;;;;4.00;1.80;;;28.20;23.50;;;;;;4993127;28;20093;-80
2022/05/22 07:59:44;;;;;;;6.73;2.47;;;27.50;24.00;;;;;;4994100;28;20078;-82
2022/05/22 08:02:14;;;;;;;4.03;2.17;;;26.70;24.10;;;;;;4994118;28;20022;-80
2022/05/22 08:04:41;;;;;;;5.70;2.17;;;26.00;24.60;;;;;;4994018;28;20260;-82
2022/05/22 08:07:07;;;;;;;4.57;1.98;;;26.50;24.40;;;;;;4995889;28;20443;-81
2022/05/22 08:09:33;;;;;;;5.28;2.10;;;26.70;24.40;;;;;;4975335;28;20026;-81
2022/05/22 08:11:58;;;;;;;4.27;2.20;;;27.50;24.40;;;;;;4993011;28;20065;-79
2022/05/22 08:14:24;;;;;;;3.17;1.70;;;28.60;23.90;;;;;;4992945;28;20440;-79
2022/05/22 08:16:52;;;;;;;4.32;2.00;;;29.90;23.60;;;;;;4999205;28;20109;-81
2022/05/22 08:19:18;;;;;;;3.00;2.15;;;30.70;23.10;;;;;;4985956;28;20029;-84
2022/05/22 08:21:44;;;;;;;3.67;2.40;;;30.90;22.60;;;;;;5014049;28;20032;-80
2022/05/22 08:24:10;;;;;;;7.27;2.07;;;30.50;22.60;;;;;;5013722;28;20108;-81
2022/05/22 08:26:37;;;;;;;11.57;2.87;;;30.50;22.60;;;;;;5015783;28;20025;-80
2022/05/22 08:29:03;;;;;;;5.68;2.42;;;30.00;22.50;;;;;;4996968;28;20033;-80
2022/05/22 08:31:29;;;;;;;3.58;1.90;;;29.00;22.60;;;;;;4996244;28;20027;-84
2022/05/22 08:33:55;;;;;;;7.20;2.93;;;29.20;23.00;;;;;;4997016;28;20038;-85
2022/05/22 08:36:21;;;;;;;2.43;2.10;;;30.00;22.90;;;;;;4998904;28;20041;-84
2022/05/22 08:38:47;;;;;;;6.63;2.83;;;30.40;22.70;;;;;;5010831;28;20267;-87
2022/05/22 08:41:26;;;;;;;5.13;2.37;;;29.80;22.60;;;;;;5008844;28;20034;-84
2022/05/22 08:44:19;;;;;;;7.53;2.97;;;28.30;22.80;;;;;;5019857;28;20462;-85
2022/05/22 08:47:17;;;;;;;3.47;2.45;;;28.10;23.30;;;;;;5016688;28;20026;-86
2022/05/22 08:50:06;;;;;;;3.78;2.58;;;28.00;22.80;;;;;;4979892;28;20048;-87
2022/05/22 08:52:46;;;;;;;3.60;2.47;;;28.10;22.80;;;;;;5005272;28;20031;-88
2022/05/22 09:01:47;;;;;;;5.40;2.58;;;26.20;23.10;;;;;;5003346;28;20030;-90
2022/05/22 09:04:25;;;;;;;4.95;2.50;;;26.50;23.70;;;;;;4991698;28;20077;-88
2022/05/22 09:07:13;;;;;;;9.80;3.03;;;27.80;22.60;;;;;;5002455;28;20015;-90
2022/05/22 09:09:41;;;;;;;5.00;2.67;;;28.60;22.10;;;;;;4993948;28;20033;-88
2022/05/22 09:12:25;;;;;;;3.75;2.40;;;29.50;21.90;;;;;;5021225;28;20018;-88
2022/05/22 09:14:55;;;;;;;3.60;2.33;;;30.70;21.80;;;;;;5012904;28;20046;-89
2022/05/22 09:17:27;;;;;;;5.13;2.60;;;29.90;21.30;;;;;;5034541;28;20029;-87
2022/05/22 09:20:09;;;;;;;3.80;2.33;;;28.50;21.60;;;;;;5003280;28;20062;-90
2022/05/22 09:22:47;;;;;;;6.35;2.55;;;28.50;21.90;;;;;;5017380;28;20021;-90
2022/05/22 09:25:32;;;;;;;9.60;3.10;;;29.20;21.70;;;;;;4994644;28;20447;-90
2022/05/22 09:28:55;;;;;;;3.38;2.13;;;29.50;21.50;;;;;;5009742;28;20097;-88
2022/05/22 09:31:39;;;;;;;11.50;2.78;;;29.70;21.20;;;;;;4969118;28;20031;-92
2022/05/22 09:34:22;;;;;;;4.05;2.40;;;29.50;20.80;;;;;;4989716;28;20053;-93
2022/05/22 09:37:11;;;;;;;6.18;2.80;;;28.60;21.20;;;;;;4973466;28;20047;-93
2022/05/22 09:40:07;;;;;;;5.05;2.08;;;28.50;20.80;;;;;;4928506;29;20039;-91
2022/05/22 09:43:01;;;;;;;6.80;2.40;;;27.60;20.80;;;;;;4859978;29;20042;-95
2022/05/22 09:46:00;;;;;;;5.38;2.80;;;26.00;21.60;;;;;;4867749;29;20435;-88
2022/05/22 09:48:54;;;;;;;5.75;2.30;;;25.50;21.60;;;;;;4891952;29;20112;-91
2022/05/22 09:51:37;;;;;;;6.15;2.13;;;24.80;21.80;;;;;;4869457;29;20037;-88
2022/05/22 09:54:26;;;;;;;7.15;2.80;;;24.10;21.60;;;;;;4877568;29;20030;-92
2022/05/22 09:57:05;;;;;;;5.72;2.60;;;23.60;22.80;;;;;;4878051;29;20041;-91
2022/05/22 09:59:43;;;;;;;5.60;2.55;;;23.10;22.50;;;;;;4865929;29;20029;-89
2022/05/22 10:02:27;;;;;;;5.03;2.53;;;22.90;23.10;;;;;;4866684;29;20041;-90
2022/05/22 10:05:30;;;;;;;4.85;2.38;;;24.20;22.80;;;;;;4861848;29;20057;-93
2022/05/22 10:08:07;;;;;;;11.65;3.40;;;25.50;22.10;;;;;;4847068;29;20045;-92
2022/05/22 10:10:52;;;;;;;5.07;2.50;;;25.20;21.90;;;;;;4883790;29;20048;-88
2022/05/22 10:13:46;;;;;;;3.38;2.50;;;25.60;22.10;;;;;;4883957;29;20165;-89
2022/05/22 10:16:38;;;;;;;6.85;2.78;;;26.60;21.70;;;;;;4905595;29;20047;-89
2022/05/22 10:19:20;;;;;;;4.47;2.53;;;27.20;21.60;;;;;;4957130;28;20037;-89
2022/05/22 10:21:58;;;;;;;7.88;2.53;;;27.40;21.50;;;;;;5025802;28;20046;-87
2022/05/22 10:24:42;;;;;;;7.53;2.80;;;26.70;21.20;;;;;;5036221;28;20010;-86
2022/05/22 10:27:37;;;;;;;9.27;2.83;;;24.90;21.50;;;;;;5033475;28;20030;-87
2022/05/22 10:30:26;;;;;;;5.03;2.92;;;22.30;22.80;;;;;;5024142;28;20361;-83
2022/05/22 10:33:14;;;;;;;6.72;2.60;;;20.60;23.80;;;;;;5009793;28;20045;-86
2022/05/22 10:35:52;;;;;;;6.65;2.70;;;19.10;25.10;;;;;;5015953;28;20034;-85
2022/05/22 10:38:32;;;;;;;4.57;2.50;;;17.70;25.70;;;;;;5010230;28;20094;-86
2022/05/22 10:43:55;;;;;;;6.43;2.40;;;15.90;27.60;;;;;;5006741;28;20041;-86
2022/05/22 10:46:21;;;;;;;5.47;2.78;;;15.50;27.80;;;;;;5003897;28;20025;-84
2022/05/22 10:48:54;;;;;;;5.88;3.03;;;15.10;28.90;;;;;;5004518;28;20033;-85
2022/05/22 10:51:26;;;;;;;5.18;2.83;;;14.80;29.20;;;;;;4997255;28;20055;-89
2022/05/22 10:53:55;;;;;;;5.57;3.22;;;14.80;30.00;;;;;;4998387;28;20030;-88
2022/05/22 10:56:35;;;;;;;3.70;2.72;;;14.70;30.50;;;;;;4997800;28;20034;-84
2022/05/22 10:59:19;;;;;;;5.18;3.00;;;14.50;30.30;;;;;;5017937;28;20010;-87
2022/05/22 11:02:03;;;;;;;7.15;3.75;;;14.20;30.70;;;;;;4987274;28;20030;-87
2022/05/22 11:04:43;;;;;;;5.45;2.65;;;14.20;30.70;;;;;;5010326;28;20018;-80
2022/05/22 11:07:10;;;;;;;9.20;3.00;;;14.10;31.10;;;;;;4996144;28;20022;-86
2022/05/22 11:09:48;;;;;;;5.63;2.65;;;13.90;31.60;;;;;;4995959;28;20027;-90
2022/05/22 11:12:26;;;;;;;6.30;2.67;;;13.80;31.80;;;;;;5009202;28;20029;-85
2022/05/22 11:15:07;;;;;;;5.30;3.00;;;13.60;32.30;;;;;;5018418;28;20045;-87
2022/05/22 11:17:33;;;;;;;5.80;3.10;;;13.50;32.80;;;;;;5016978;28;20030;-84
2022/05/22 11:20:21;;;;;;;5.07;3.20;;;13.50;34.10;;;;;;5025400;28;20039;-89
2022/05/22 11:23:03;;;;;;;3.30;2.38;;;13.50;33.80;;;;;;5017379;28;20014;-87
2022/05/22 11:25:49;;;;;;;7.80;3.10;;;13.60;33.50;;;;;;5034957;28;20021;-91
2022/05/22 11:28:23;;;;;;;6.75;3.00;;;13.50;33.70;;;;;;5030192;28;20018;-88
2022/05/22 11:31:13;;;;;;;3.90;2.55;;;13.50;33.00;;;;;;5020343;28;20025;-91
2022/05/22 11:34:09;;;;;;;5.97;2.60;;;13.40;32.50;;;;;;5001554;28;20042;-89
2022/05/22 11:36:38;;;;;;;4.85;2.92;;;13.40;32.20;;;;;;4998590;28;20108;-85
2022/05/22 11:39:16;;;;;;;4.80;2.90;;;13.30;32.60;;;;;;5001785;28;20088;-87
2022/05/22 11:41:51;;;;;;;5.53;2.85;;;13.30;33.80;;;;;;5006376;28;20027;-88
2022/05/22 11:44:42;;;;;;;11.02;3.53;;;13.30;33.80;;;;;;4977854;28;20025;-85
2022/05/22 11:47:34;;;;;;;5.28;2.88;;;13.20;34.50;;;;;;4974917;28;20040;-84
2022/05/22 11:50:06;;;;;;;5.05;3.33;;;13.20;34.40;;;;;;5006572;28;20022;-87
2022/05/22 11:52:56;;;;;;;16.40;3.67;;;13.30;34.60;;;;;;5005704;28;20480;-88
2022/05/22 11:55:36;;;;;;;11.55;3.35;;;13.30;34.80;;;;;;4994216;28;20030;-82
2022/05/22 11:58:29;;;;;;;6.43;3.17;;;13.50;35.00;;;;;;4993634;28;20033;-84
2022/05/22 12:01:27;;;;;;;7.07;3.05;;;13.50;34.40;;;;;;4996533;28;20031;-84
2022/05/22 12:04:16;;;;;;;6.38;3.33;;;13.40;34.30;;;;;;4997800;28;20491;-87
2022/05/22 12:06:45;;;;;;;4.53;2.95;;;13.30;34.40;;;;;;4997680;28;20097;-85
2022/05/22 12:09:45;;;;;;;10.55;3.63;;;13.20;34.60;;;;;;4997727;28;20027;-85
2022/05/22 12:12:18;;;;;;;6.03;3.00;;;13.20;34.50;;;;;;4999460;28;20525;-84
2022/05/22 12:15:02;;;;;;;6.35;3.10;;;13.10;34.70;;;;;;5006920;28;20038;-84
2022/05/22 12:17:45;;;;;;;5.55;2.63;;;13.10;34.60;;;;;;5004636;28;20026;-86
2022/05/22 12:20:14;;;;;;;5.43;2.58;;;13.10;34.80;;;;;;4997057;28;20026;-83
2022/05/22 12:23:10;;;;;;;5.22;3.25;;;13.10;34.40;;;;;;4997370;28;20054;-85
2022/05/22 12:26:01;;;;;;;12.77;3.85;;;13.10;34.70;;;;;;4982814;28;20039;-87
2022/05/22 12:28:55;;;;;;;5.80;2.70;;;13.00;35.10;;;;;;5002454;28;20026;-89
2022/05/22 12:31:53;;;;;;;4.57;2.58;;;13.00;35.20;;;;;;4984211;28;20026;-90
2022/05/22 12:34:43;;;;;;;10.13;2.58;;;13.00;34.90;;;;;;5002504;28;20041;-90
2022/05/22 12:37:16;;;;;;;6.53;3.33;;;13.00;35.30;;;;;;5001195;28;20029;-91
2022/05/22 12:40:17;;;;;;;11.77;3.88;;;13.00;35.30;;;;;;5015657;28;20044;-92
2022/05/22 12:42:56;;;;;;;7.10;3.13;;;13.10;35.70;;;;;;4978806;28;20118;-89
2022/05/22 12:45:26;;;;;;;6.40;3.15;;;13.20;35.90;;;;;;4982535;28;20034;-91
2022/05/22 12:47:54;;;;;;;3.10;1.95;;;13.20;35.80;;;;;;4990163;28;20405;-90
2022/05/22 12:50:35;;;;;;;9.60;3.58;;;13.20;35.60;;;;;;4956430;29;20050;-88
2022/05/22 12:53:01;;;;;;;6.47;3.58;;;13.10;36.20;;;;;;4909106;29;20075;-88
2022/05/22 12:55:32;;;;;;;8.77;3.10;;;13.00;36.50;;;;;;4931197;29;20072;-91
2022/05/22 12:58:04;;;;;;;4.57;2.47;;;13.00;36.80;;;;;;4913042;29;20044;-91
2022/05/22 13:00:39;;;;;;;7.18;3.20;;;13.10;36.80;;;;;;4910975;29;20045;-91
2022/05/22 13:03:22;;;;;;;7.45;3.45;;;13.00;36.50;;;;;;4906240;29;20089;-89
2022/05/22 13:06:05;;;;;;;6.35;2.95;;;13.00;36.90;;;;;;4902378;29;20489;-89
2022/05/22 13:08:44;;;;;;;6.15;2.67;;;13.10;36.40;;;;;;4907105;29;20025;-94
2022/05/22 13:11:16;;;;;;;8.93;2.72;;;13.00;36.50;;;;;;4908139;29;20043;-87
2022/05/22 13:13:52;;;;;;;4.95;3.03;;;13.00;36.40;;;;;;4901703;29;20044;-87
2022/05/22 13:16:27;;;;;;;3.40;2.70;;;13.00;36.30;;;;;;4902961;29;20163;-90
2022/05/22 13:18:54;;;;;;;6.28;3.03;;;13.00;36.40;;;;;;4904889;29;20044;-86
2022/05/22 13:21:37;;;;;;;9.73;2.75;;;13.00;36.30;;;;;;4944068;29;20386;-84
2022/05/22 13:24:27;;;;;;;3.90;2.22;;;13.00;36.60;;;;;;4957302;29;20106;-84
2022/05/22 13:27:08;;;;;;;6.53;2.22;;;13.00;36.70;;;;;;4963462;29;20051;-86
2022/05/22 13:29:52;;;;;;;10.75;3.00;;;13.00;36.60;;;;;;4977099;28;20027;-85
2022/05/22 13:32:23;;;;;;;3.03;2.35;;;13.00;36.80;;;;;;4989055;28;20061;-87